Time;durP1;ratioP1;P1;durP2;ratioP2;P2;SDS_P1;SDS_P2;PMS_P1;PMS_P2;Temp;Humidity;BMP_temperature;BMP_pressure;BME280_temperature;BME280_humidity;BME280_pressure;Samples;Min_cycle;Max_cycle;Signal;HPM_P1;HPM_P2
2023/10/01 00:01:36;;;;;;;8.73;5.03;;;10.80;99.90;;;;;;4999050;28;20182;-88
2023/10/01 00:04:06;;;;;;;6.83;4.37;;;12.00;99.90;;;;;;4998166;28;20273;-89
2023/10/01 00:06:36;;;;;;;8.93;4.70;;;12.10;99.90;;;;;;4998370;28;20638;-88
2023/10/01 00:09:05;;;;;;;7.30;4.13;;;10.80;99.90;;;;;;4997987;28;20206;-90
2023/10/01 00:11:32;;;;;;;7.83;3.80;;;11.50;99.90;;;;;;4997824;28;20182;-86
2023/10/01 00:14:03;;;;;;;5.27;3.57;;;10.70;99.90;;;;;;4998682;28;20186;-88
2023/10/01 00:16:29;;;;;;;8.97;4.40;;;11.00;99.90;;;;;;4997042;28;20174;-88
2023/10/01 00:18:55;;;;;;;6.50;3.93;;;10.80;99.90;;;;;;4997780;28;20686;-88
2023/10/01 00:21:20;;;;;;;8.43;4.23;;;10.70;99.90;;;;;;4997658;28;20181;-88
2023/10/01 00:23:46;;;;;;;6.87;3.90;;;11.40;99.90;;;;;;4996942;28;20182;-88
2023/10/01 00:26:12;;;;;;;6.40;3.83;;;12.20;99.90;;;;;;4997146;28;20622;-89
2023/10/01 00:28:37;;;;;;;7.17;4.17;;;11.50;99.90;;;;;;4997267;28;20201;-88
2023/10/01 00:31:03;;;;;;;5.50;3.27;;;12.30;99.90;;;;;;4998316;28;20182;-88
2023/10/01 00:33:29;;;;;;;6.33;3.73;;;12.60;99.90;;;;;;4997678;28;20597;-89
2023/10/01 00:35:55;;;;;;;9.07;4.60;;;11.90;99.90;;;;;;4997363;28;20646;-89
2023/10/01 00:38:21;;;;;;;6.33;4.43;;;11.00;99.90;;;;;;4997812;28;20202;-90
2023/10/01 00:40:50;;;;;;;6.93;4.60;;;11.80;99.90;;;;;;4998392;28;20297;-90
2023/10/01 00:43:15;;;;;;;9.47;4.20;;;12.40;99.90;;;;;;4999749;28;20166;-89
2023/10/01 00:45:42;;;;;;;10.40;3.90;;;10.60;99.90;;;;;;4997970;28;20237;-88
2023/10/01 00:48:11;;;;;;;8.00;4.10;;;10.60;99.90;;;;;;4998447;28;20577;-88
2023/10/01 00:50:38;;;;;;;7.63;4.40;;;11.20;99.90;;;;;;4998481;28;20182;-89
2023/10/01 00:53:05;;;;;;;4.67;3.40;;;11.40;99.90;;;;;;4999940;28;20260;-85
2023/10/01 00:55:30;;;;;;;5.60;3.43;;;10.60;99.90;;;;;;4998144;28;20202;-89
2023/10/01 00:57:56;;;;;;;7.03;4.17;;;12.20;99.90;;;;;;4996442;28;20239;-86
2023/10/01 01:00:25;;;;;;;9.20;3.90;;;10.80;99.90;;;;;;4998093;28;20206;-89
2023/10/01 01:03:00;;;;;;;6.27;3.60;;;10.70;99.90;;;;;;4997516;28;20202;-88
2023/10/01 01:05:34;;;;;;;14.63;4.23;;;11.50;99.90;;;;;;4997636;28;20561;-87
2023/10/01 01:08:04;;;;;;;8.97;3.90;;;10.70;99.90;;;;;;4997728;28;20184;-89
2023/10/01 01:10:39;;;;;;;7.23;3.70;;;10.50;99.90;;;;;;4997587;28;20197;-90
2023/10/01 01:13:06;;;;;;;8.47;3.67;;;10.60;99.90;;;;;;4998879;28;20170;-87
2023/10/01 01:15:34;;;;;;;6.53;4.00;;;10.10;99.90;;;;;;4996886;28;20186;-90
2023/10/01 01:18:07;;;;;;;8.47;3.60;;;10.50;99.90;;;;;;4997137;28;20214;-90
2023/10/01 01:20:36;;;;;;;9.60;3.90;;;10.40;99.90;;;;;;4997763;28;20299;-87
2023/10/01 01:23:04;;;;;;;7.33;3.80;;;11.60;99.90;;;;;;4997413;28;20185;-89
2023/10/01 01:25:32;;;;;;;7.70;3.63;;;11.40;99.90;;;;;;4997452;28;20195;-88
2023/10/01 01:27:59;;;;;;;6.67;3.80;;;11.30;99.90;;;;;;4997732;28;20205;-88
2023/10/01 01:30:29;;;;;;;4.87;3.57;;;10.40;99.90;;;;;;4997196;28;20199;-87
2023/10/01 01:32:57;;;;;;;5.57;3.53;;;11.40;99.90;;;;;;4996616;28;20253;-86
2023/10/01 01:35:28;;;;;;;4.70;3.37;;;10.30;99.90;;;;;;4997698;28;20189;-88
2023/10/01 01:37:55;;;;;;;6.03;3.03;;;12.80;99.90;;;;;;4997354;28;20180;-88
2023/10/01 01:40:25;;;;;;;5.70;3.60;;;12.30;99.90;;;;;;4996857;28;20236;-88
2023/10/01 01:42:56;;;;;;;6.53;3.30;;;10.30;99.90;;;;;;4996834;28;20316;-87
2023/10/01 01:45:31;;;;;;;4.83;3.43;;;10.90;99.90;;;;;;4997514;28;20177;-89
2023/10/01 01:47:56;;;;;;;4.90;3.33;;;10.30;99.90;;;;;;4996131;28;20268;-89
2023/10/01 01:50:26;;;;;;;6.37;3.77;;;11.30;99.90;;;;;;4997159;28;20271;-87
2023/10/01 01:52:56;;;;;;;7.83;3.80;;;11.20;99.90;;;;;;4997159;28;20274;-89
2023/10/01 01:55:29;;;;;;;8.63;3.60;;;10.30;99.90;;;;;;4996683;28;20204;-88
2023/10/01 01:58:10;;;;;;;6.90;3.40;;;10.30;99.90;;;;;;4996813;28;20186;-89
2023/10/01 02:01:01;;;;;;;6.37;3.40;;;12.50;99.90;;;;;;4997173;28;20209;-88
2023/10/01 02:03:27;;;;;;;9.63;4.00;;;10.30;99.90;;;;;;4996279;28;20178;-88
2023/10/01 02:05:53;;;;;;;8.80;3.60;;;10.20;99.90;;;;;;4995629;28;20182;-89
2023/10/01 02:08:35;;;;;;;6.73;3.37;;;11.10;99.90;;;;;;4996313;28;20733;-87
2023/10/01 02:11:04;;;;;;;9.27;3.30;;;11.00;99.90;;;;;;4995823;28;20208;-86
2023/10/01 02:13:30;;;;;;;6.03;3.20;;;10.20;99.90;;;;;;4995547;28;20189;-89
2023/10/01 02:16:18;;;;;;;6.97;3.57;;;10.40;99.90;;;;;;4995602;28;20182;-89
2023/10/01 02:18:42;;;;;;;4.47;3.00;;;10.20;99.90;;;;;;4996543;28;20218;-88
2023/10/01 02:21:16;;;;;;;4.60;3.13;;;10.20;99.90;;;;;;4997158;28;20200;-89
2023/10/01 02:23:42;;;;;;;6.17;3.40;;;10.10;99.90;;;;;;4995086;28;20169;-88
2023/10/01 02:26:07;;;;;;;8.90;3.60;;;10.30;99.90;;;;;;4996067;28;20240;-90
2023/10/01 02:28:36;;;;;;;6.30;3.70;;;11.30;99.90;;;;;;4997871;28;20657;-88
2023/10/01 02:31:03;;;;;;;6.20;3.53;;;10.70;99.90;;;;;;4996861;28;20186;-89
2023/10/01 02:36:15;;;;;;;8.63;3.63;;;10.80;99.90;;;;;;4997897;28;20257;-90
2023/10/01 02:38:45;;;;;;;6.40;3.30;;;10.20;99.90;;;;;;4998690;28;20296;-90
2023/10/01 02:41:14;;;;;;;11.77;3.70;;;10.20;99.90;;;;;;4999512;28;20524;-91
2023/10/01 02:43:41;;;;;;;7.30;3.23;;;10.10;99.90;;;;;;4997961;28;20186;-91
2023/10/01 02:46:12;;;;;;;7.57;3.27;;;10.60;99.90;;;;;;4998362;28;20547;-89
2023/10/01 02:48:42;;;;;;;4.30;3.17;;;10.20;99.90;;;;;;4998049;28;20627;-88
2023/10/01 02:51:14;;;;;;;7.53;3.40;;;10.20;99.90;;;;;;4997278;28;20215;-89
2023/10/01 02:54:05;;;;;;;5.03;3.20;;;11.70;99.90;;;;;;4996793;28;20576;-88
2023/10/01 02:56:37;;;;;;;5.90;3.53;;;10.90;99.90;;;;;;4995355;28;20260;-88
2023/10/01 02:59:12;;;;;;;7.97;3.00;;;10.30;99.90;;;;;;4998189;28;20213;-88
2023/10/01 03:01:45;;;;;;;7.30;3.27;;;10.20;99.90;;;;;;5006521;28;20189;-89
2023/10/01 03:04:14;;;;;;;5.87;3.00;;;11.50;99.90;;;;;;5012308;28;20170;-89
2023/10/01 03:06:47;;;;;;;6.27;3.17;;;11.50;99.90;;;;;;5010931;28;20181;-88
2023/10/01 03:09:22;;;;;;;5.17;2.90;;;10.20;99.90;;;;;;5006844;28;20205;-88
2023/10/01 03:11:55;;;;;;;9.73;3.60;;;10.20;99.90;;;;;;5003170;28;20182;-89
2023/10/01 03:14:26;;;;;;;5.73;3.40;;;11.50;99.90;;;;;;4994779;28;20188;-88
2023/10/01 03:16:54;;;;;;;5.40;3.50;;;10.20;99.90;;;;;;4994668;28;20254;-88
2023/10/01 03:19:25;;;;;;;6.70;3.50;;;11.60;99.90;;;;;;4994133;28;20218;-87
2023/10/01 03:24:39;;;;;;;5.87;3.17;;;10.30;99.90;;;;;;4999477;28;20184;-87
2023/10/01 03:27:20;;;;;;;6.50;3.20;;;10.30;99.90;;;;;;4998084;28;20611;-88
2023/10/01 03:29:49;;;;;;;6.53;3.50;;;10.30;99.90;;;;;;4998493;28;20689;-87
2023/10/01 03:32:27;;;;;;;7.33;3.40;;;10.40;99.90;;;;;;4999559;28;20656;-87
2023/10/01 03:34:55;;;;;;;6.53;2.53;;;10.30;99.90;;;;;;4998296;28;20182;-88
2023/10/01 03:37:27;;;;;;;5.50;3.47;;;10.30;99.90;;;;;;4998424;28;20188;-88
2023/10/01 03:40:08;;;;;;;6.40;3.40;;;10.50;99.90;;;;;;4997802;28;20226;-88
2023/10/01 03:42:37;;;;;;;6.53;3.33;;;11.60;99.90;;;;;;4997822;28;20645;-88
2023/10/01 03:47:36;;;;;;;9.17;3.33;;;10.20;99.90;;;;;;4998940;28;20185;-88
2023/10/01 03:50:03;;;;;;;7.37;3.23;;;10.40;99.90;;;;;;4997952;28;20679;-88
2023/10/01 03:52:29;;;;;;;9.23;3.90;;;10.20;99.90;;;;;;4997569;28;20196;-88
2023/10/01 03:57:24;;;;;;;7.17;3.83;;;10.90;99.90;;;;;;4998637;28;20239;-87
2023/10/01 03:59:53;;;;;;;6.77;3.70;;;10.40;99.90;;;;;;4997095;28;20218;-88
2023/10/01 04:05:21;;;;;;;9.90;4.00;;;10.30;99.90;;;;;;4998840;28;20172;-88
2023/10/01 04:07:49;;;;;;;7.07;3.70;;;10.30;99.90;;;;;;4997057;28;20544;-89
2023/10/01 04:10:28;;;;;;;6.53;3.80;;;10.20;99.90;;;;;;4964730;28;20189;-89
2023/10/01 04:12:55;;;;;;;7.93;3.40;;;10.30;99.90;;;;;;4997114;28;20188;-88
2023/10/01 04:15:27;;;;;;;6.37;3.60;;;10.10;99.90;;;;;;4996881;28;20195;-88
2023/10/01 04:23:29;;;;;;;6.37;3.90;;;10.30;99.90;;;;;;4998254;28;20165;-88
2023/10/01 04:26:06;;;;;;;7.23;3.77;;;10.50;99.90;;;;;;4996573;28;20210;-87
2023/10/01 04:28:44;;;;;;;7.83;3.90;;;10.50;99.90;;;;;;4997820;28;20193;-89
2023/10/01 04:31:15;;;;;;;9.90;4.60;;;10.30;99.90;;;;;;4997015;28;20207;-88
2023/10/01 04:33:43;;;;;;;9.13;4.17;;;11.50;99.90;;;;;;4996795;28;20178;-88
2023/10/01 04:36:16;;;;;;;7.63;4.07;;;10.30;99.90;;;;;;4996736;28;20326;-89
2023/10/01 04:38:48;;;;;;;12.40;4.63;;;11.00;99.90;;;;;;4981471;28;20221;-88
2023/10/01 04:41:16;;;;;;;8.50;4.40;;;11.10;99.90;;;;;;4997843;28;20161;-87
2023/10/01 04:43:51;;;;;;;8.97;4.50;;;10.30;99.90;;;;;;4997559;28;20173;-88
2023/10/01 04:46:25;;;;;;;9.43;5.03;;;10.30;99.90;;;;;;4997764;28;20154;-88
2023/10/01 04:48:51;;;;;;;10.10;5.10;;;10.30;99.90;;;;;;4996157;28;20202;-87
2023/10/01 04:51:21;;;;;;;10.30;4.80;;;10.40;99.90;;;;;;4996101;28;20243;-88
2023/10/01 04:53:47;;;;;;;11.17;5.10;;;10.90;99.90;;;;;;4996182;28;20194;-87
2023/10/01 04:56:20;;;;;;;11.93;4.70;;;10.70;99.90;;;;;;4997241;28;20201;-88
2023/10/01 04:58:51;;;;;;;11.60;5.20;;;10.60;99.90;;;;;;4996204;28;20682;-87
2023/10/01 05:01:18;;;;;;;11.67;5.20;;;10.50;99.90;;;;;;4997213;28;20164;-88
2023/10/01 05:03:48;;;;;;;12.37;5.37;;;10.20;99.90;;;;;;4996922;28;20814;-88
2023/10/01 05:06:20;;;;;;;9.97;5.03;;;10.40;99.90;;;;;;4995801;28;20592;-88
2023/10/01 05:08:56;;;;;;;11.33;5.50;;;10.60;99.90;;;;;;4997138;28;20331;-87
2023/10/01 05:11:22;;;;;;;10.90;5.13;;;10.60;99.90;;;;;;4996091;28;20185;-87
2023/10/01 05:13:51;;;;;;;11.13;5.47;;;11.60;99.90;;;;;;4995419;28;20217;-88
2023/10/01 05:16:18;;;;;;;14.03;6.17;;;10.40;99.90;;;;;;4995793;28;20238;-88
2023/10/01 05:18:49;;;;;;;12.67;6.43;;;10.90;99.90;;;;;;4995576;28;20219;-87
2023/10/01 05:21:21;;;;;;;8.83;5.23;;;10.70;99.90;;;;;;4996621;28;20188;-87
2023/10/01 05:23:47;;;;;;;13.30;5.77;;;10.80;99.90;;;;;;4995893;28;20177;-88
2023/10/01 05:26:20;;;;;;;9.33;5.20;;;10.70;99.90;;;;;;4995635;28;20181;-88
2023/10/01 05:28:47;;;;;;;10.93;4.93;;;10.60;99.90;;;;;;4995705;28;20230;-88
2023/10/01 05:31:14;;;;;;;12.20;5.73;;;11.30;99.90;;;;;;4995621;28;20192;-87
2023/10/01 05:33:46;;;;;;;12.10;5.57;;;10.50;99.90;;;;;;4995777;28;20272;-90
2023/10/01 05:36:13;;;;;;;11.37;5.83;;;10.40;99.90;;;;;;4996877;28;20164;-87
2023/10/01 05:38:43;;;;;;;12.47;5.23;;;10.70;99.90;;;;;;4995354;28;20206;-88
2023/10/01 05:41:09;;;;;;;12.40;5.80;;;11.20;99.90;;;;;;4995377;28;20646;-88
2023/10/01 05:43:43;;;;;;;18.13;6.07;;;10.60;99.90;;;;;;4995369;28;20178;-88
2023/10/01 05:46:09;;;;;;;11.73;5.53;;;10.30;99.90;;;;;;4995859;28;20185;-87
2023/10/01 05:48:37;;;;;;;11.07;5.23;;;11.10;99.90;;;;;;4995408;28;20212;-89
2023/10/01 05:51:04;;;;;;;12.37;5.20;;;11.50;99.90;;;;;;4996331;28;20590;-88
2023/10/01 05:53:30;;;;;;;11.83;5.27;;;10.40;99.90;;;;;;4995299;28;20183;-88
2023/10/01 05:56:07;;;;;;;15.50;6.17;;;10.70;99.90;;;;;;4995201;28;20198;-88
2023/10/01 05:58:36;;;;;;;11.40;5.43;;;10.40;99.90;;;;;;4995021;28;20200;-88
2023/10/01 06:01:14;;;;;;;11.53;5.63;;;10.40;99.90;;;;;;4994898;28;20192;-88
2023/10/01 06:03:41;;;;;;;9.53;5.23;;;11.40;99.90;;;;;;4996459;28;20155;-87
2023/10/01 06:06:10;;;;;;;9.57;5.30;;;10.10;99.90;;;;;;4994800;28;20243;-89
2023/10/01 06:08:45;;;;;;;11.23;6.03;;;10.40;99.90;;;;;;4995275;28;20228;-88
2023/10/01 06:11:18;;;;;;;11.57;5.80;;;11.00;99.90;;;;;;4994951;28;20173;-88
2023/10/01 06:13:51;;;;;;;12.10;5.97;;;10.40;99.90;;;;;;4995396;28;20185;-88
2023/10/01 06:16:23;;;;;;;14.47;6.30;;;10.50;99.90;;;;;;4996500;28;20584;-88
2023/10/01 06:18:56;;;;;;;15.33;6.13;;;10.50;99.90;;;;;;4994918;28;20223;-89
2023/10/01 06:21:25;;;;;;;14.20;6.17;;;10.50;99.90;;;;;;4995718;28;20261;-88
2023/10/01 06:23:58;;;;;;;13.20;6.50;;;11.00;99.90;;;;;;4994206;28;20189;-88
2023/10/01 06:26:37;;;;;;;11.97;6.13;;;10.70;99.90;;;;;;4995913;28;20161;-89
2023/10/01 06:29:05;;;;;;;15.53;6.13;;;10.80;99.90;;;;;;4994686;28;20264;-89
2023/10/01 06:34:21;;;;;;;14.53;6.70;;;10.90;99.90;;;;;;4995767;28;20171;-88
2023/10/01 06:36:56;;;;;;;15.70;6.97;;;11.10;99.90;;;;;;4994091;28;20210;-87
2023/10/01 06:39:25;;;;;;;15.17;6.67;;;12.50;99.90;;;;;;4993868;28;20212;-87
2023/10/01 06:42:17;;;;;;;16.53;7.17;;;11.30;99.90;;;;;;4994072;28;20175;-87
2023/10/01 06:44:38;;;;;;;14.90;6.37;;;11.30;99.90;;;;;;4994596;28;20182;-87
2023/10/01 06:47:14;;;;;;;17.53;7.40;;;11.60;99.90;;;;;;4993950;28;20300;-86
2023/10/01 06:52:36;;;;;;;15.37;7.23;;;11.70;99.90;;;;;;4996170;28;20235;-84
2023/10/01 06:55:03;;;;;;;15.40;6.80;;;11.90;99.90;;;;;;5001313;28;20200;-85
2023/10/01 06:57:38;;;;;;;18.00;7.47;;;11.90;99.90;;;;;;5002027;28;20186;-85
2023/10/01 07:00:12;;;;;;;15.10;7.23;;;12.00;99.90;;;;;;4985421;28;20335;-84
2023/10/01 07:02:41;;;;;;;14.47;7.10;;;12.10;99.90;;;;;;5003415;28;20153;-85
2023/10/01 07:05:08;;;;;;;17.83;6.97;;;12.40;99.90;;;;;;5002195;28;20177;-84
2023/10/01 07:07:35;;;;;;;17.97;7.53;;;12.30;99.90;;;;;;4986853;28;20192;-85
2023/10/01 07:10:02;;;;;;;16.50;7.43;;;12.60;99.90;;;;;;5002576;28;20212;-83
2023/10/01 07:12:27;;;;;;;14.07;7.03;;;13.00;99.90;;;;;;5003197;28;20260;-84
2023/10/01 07:14:54;;;;;;;16.50;7.73;;;13.20;99.90;;;;;;5002758;28;20602;-85
2023/10/01 07:17:24;;;;;;;15.80;8.00;;;13.10;99.90;;;;;;5003834;28;20197;-84
2023/10/01 07:20:00;;;;;;;18.13;7.90;;;12.90;99.90;;;;;;5002843;28;20240;-85
2023/10/01 07:22:34;;;;;;;17.33;7.77;;;13.90;99.90;;;;;;5004475;28;20190;-86
2023/10/01 07:25:02;;;;;;;18.07;8.17;;;13.10;99.90;;;;;;5008223;28;20177;-85
2023/10/01 07:27:28;;;;;;;14.87;7.53;;;14.90;99.90;;;;;;5008433;28;20182;-85
2023/10/01 07:29:54;;;;;;;20.50;8.50;;;13.70;99.90;;;;;;5008543;28;20225;-83
2023/10/01 07:32:22;;;;;;;19.47;8.03;;;14.50;99.90;;;;;;4999451;28;20205;-86
2023/10/01 07:34:55;;;;;;;21.80;7.63;;;13.50;99.90;;;;;;4996840;28;20190;-85
2023/10/01 07:37:25;;;;;;;28.40;7.93;;;14.00;99.90;;;;;;5000007;28;20224;-85
2023/10/01 07:39:55;;;;;;;18.63;7.83;;;13.80;99.90;;;;;;4999698;28;20245;-85
2023/10/01 07:42:25;;;;;;;17.93;8.40;;;13.90;99.90;;;;;;5000788;28;20539;-84
2023/10/01 07:44:52;;;;;;;17.83;8.07;;;14.00;99.90;;;;;;4998478;28;20735;-85
2023/10/01 07:47:31;;;;;;;21.27;8.40;;;14.20;99.90;;;;;;4997546;28;20205;-85
2023/10/01 07:50:12;;;;;;;16.93;7.83;;;14.30;99.90;;;;;;4998746;28;20210;-86
2023/10/01 07:52:40;;;;;;;18.03;9.03;;;14.30;99.90;;;;;;4999681;28;20169;-85
2023/10/01 07:58:16;;;;;;;19.07;8.87;;;14.70;99.90;;;;;;5000525;28;20246;-85
2023/10/01 08:00:43;;;;;;;19.07;8.67;;;15.60;99.90;;;;;;5000538;28;20268;-84
2023/10/01 08:03:32;;;;;;;17.67;9.00;;;15.10;99.90;;;;;;4982233;28;20666;-86
2023/10/01 08:06:25;;;;;;;21.40;9.17;;;15.20;99.90;;;;;;4998520;28;20187;-84
2023/10/01 08:08:47;;;;;;;19.13;8.73;;;15.30;99.90;;;;;;5001473;28;20233;-85
2023/10/01 08:13:58;;;;;;;20.13;8.87;;;15.60;99.90;;;;;;5001695;28;20281;-88
2023/10/01 08:16:24;;;;;;;21.27;8.67;;;15.80;99.90;;;;;;5001676;28;20198;-85
2023/10/01 08:18:57;;;;;;;20.37;8.33;;;15.90;99.90;;;;;;5006638;28;20210;-86
2023/10/01 08:21:37;;;;;;;19.80;8.40;;;16.20;99.90;;;;;;5005871;28;20179;-87
2023/10/01 08:24:09;;;;;;;18.13;8.23;;;16.20;99.90;;;;;;5006699;28;20177;-86
2023/10/01 08:26:43;;;;;;;16.53;7.67;;;16.30;99.90;;;;;;5011715;28;20154;-88
2023/10/01 08:29:08;;;;;;;14.17;7.67;;;16.40;99.90;;;;;;5007581;28;20242;-86
2023/10/01 08:32:08;;;;;;;14.73;7.70;;;16.70;99.90;;;;;;5008047;28;20506;-87
2023/10/01 08:34:29;;;;;;;15.90;7.13;;;16.70;99.90;;;;;;5009698;28;20241;-86
2023/10/01 08:37:06;;;;;;;14.03;7.13;;;16.80;99.90;;;;;;5007506;28;20170;-87
2023/10/01 08:39:47;;;;;;;16.43;8.10;;;16.80;99.90;;;;;;5008185;28;20214;-86
2023/10/01 08:42:13;;;;;;;14.93;7.30;;;17.10;99.90;;;;;;5009911;28;20182;-86
2023/10/01 08:44:45;;;;;;;14.30;7.07;;;17.20;99.90;;;;;;5011412;28;20178;-84
2023/10/01 08:47:34;;;;;;;19.33;7.60;;;17.40;99.90;;;;;;5013183;28;20163;-86
2023/10/01 08:52:55;;;;;;;13.03;6.97;;;17.70;99.90;;;;;;5012015;28;20180;-85
2023/10/01 08:55:39;;;;;;;12.27;7.13;;;18.40;99.90;;;;;;5011007;28;20273;-88
2023/10/01 09:00:49;;;;;;;13.97;6.43;;;18.00;99.90;;;;;;5011323;28;20204;-85
2023/10/01 09:03:26;;;;;;;13.40;6.30;;;18.40;99.90;;;;;;5011545;28;20185;-86
2023/10/01 09:06:01;;;;;;;13.40;6.77;;;18.50;99.90;;;;;;5009808;28;20173;-87
2023/10/01 09:08:42;;;;;;;15.53;6.77;;;18.50;99.90;;;;;;5010134;28;20205;-87
2023/10/01 09:11:13;;;;;;;14.77;7.23;;;18.40;99.90;;;;;;5008710;28;20185;-89
2023/10/01 09:13:46;;;;;;;16.47;6.93;;;18.80;99.90;;;;;;5012589;28;20159;-86
2023/10/01 09:16:12;;;;;;;15.53;6.80;;;19.00;99.90;;;;;;5009725;28;20206;-87
2023/10/01 09:19:03;;;;;;;15.90;6.50;;;18.90;99.90;;;;;;5009613;28;20202;-88
2023/10/01 09:21:38;;;;;;;14.07;6.47;;;19.00;99.90;;;;;;5011292;28;20206;-89
2023/10/01 09:24:42;;;;;;;13.63;6.10;;;19.10;99.90;;;;;;5013538;28;20193;-86
2023/10/01 09:27:30;;;;;;;13.70;7.03;;;19.30;99.90;;;;;;5016705;28;20162;-86
2023/10/01 09:30:27;;;;;;;12.93;6.80;;;19.40;99.90;;;;;;5018193;28;20281;-86
2023/10/01 09:32:54;;;;;;;12.63;6.10;;;19.50;99.90;;;;;;5018280;28;20218;-87
2023/10/01 09:35:39;;;;;;;15.03;6.10;;;19.70;99.90;;;;;;5016479;28;20186;-88
2023/10/01 09:38:13;;;;;;;17.57;6.90;;;19.80;99.90;;;;;;5011564;28;20233;-85
2023/10/01 09:40:43;;;;;;;12.63;6.60;;;20.00;99.90;;;;;;5011801;28;20282;-87
2023/10/01 09:43:19;;;;;;;18.93;6.50;;;20.10;99.90;;;;;;5012740;28;20169;-86
2023/10/01 09:45:49;;;;;;;14.33;6.83;;;20.20;99.90;;;;;;5012281;28;20177;-84
2023/10/01 09:48:30;;;;;;;15.97;7.27;;;20.30;99.90;;;;;;5011610;28;20203;-86
2023/10/01 09:51:07;;;;;;;12.47;6.57;;;20.40;99.90;;;;;;5012769;28;20174;-85
2023/10/01 09:53:55;;;;;;;14.37;6.37;;;20.50;99.50;;;;;;5013451;28;20163;-87
2023/10/01 09:56:26;;;;;;;13.47;6.77;;;20.70;93.80;;;;;;5012830;28;20249;-87
2023/10/01 09:59:07;;;;;;;14.77;7.00;;;20.80;88.60;;;;;;5007458;28;20593;-86
2023/10/01 10:01:35;;;;;;;14.07;7.37;;;20.90;89.50;;;;;;5007094;28;20623;-85
2023/10/01 10:04:03;;;;;;;14.23;6.67;;;21.00;86.70;;;;;;5007950;28;20245;-85
2023/10/01 10:06:29;;;;;;;12.40;6.23;;;21.10;83.60;;;;;;5007928;28;20182;-87
2023/10/01 10:09:05;;;;;;;12.93;6.40;;;21.20;84.80;;;;;;5007252;28;20210;-86
2023/10/01 10:11:43;;;;;;;13.33;6.27;;;21.30;71.80;;;;;;5009892;28;20300;-88
2023/10/01 10:14:27;;;;;;;13.17;6.60;;;21.50;76.60;;;;;;5008423;28;20189;-87
2023/10/01 10:16:58;;;;;;;12.20;6.77;;;21.70;73.60;;;;;;5006720;28;20182;-88
2023/10/01 10:19:24;;;;;;;12.67;6.50;;;21.60;63.50;;;;;;5005810;28;20217;-88
2023/10/01 10:24:34;;;;;;;11.83;6.30;;;21.70;69.60;;;;;;5002914;28;20169;-86
2023/10/01 10:27:08;;;;;;;15.63;6.37;;;21.70;75.00;;;;;;5001415;28;20201;-87
2023/10/01 10:30:05;;;;;;;10.90;6.23;;;21.90;74.40;;;;;;5001110;28;20232;-88
2023/10/01 10:32:41;;;;;;;14.83;7.03;;;22.00;86.10;;;;;;4998258;28;20226;-87
2023/10/01 10:35:14;;;;;;;13.57;7.47;;;22.10;84.20;;;;;;5004429;28;20205;-86
2023/10/01 10:37:44;;;;;;;17.47;7.83;;;22.20;78.00;;;;;;5004133;28;20233;-86
2023/10/01 10:42:46;;;;;;;14.07;7.03;;;22.40;66.60;;;;;;5005574;28;20198;-88
2023/10/01 10:45:21;;;;;;;14.30;7.17;;;22.50;69.40;;;;;;5001224;28;20206;-87
2023/10/01 10:48:02;;;;;;;13.43;6.50;;;22.50;33.30;;;;;;5001120;28;20169;-88
2023/10/01 10:50:53;;;;;;;14.97;7.43;;;22.60;56.10;;;;;;5001473;28;20170;-90
2023/10/01 10:53:19;;;;;;;11.57;6.60;;;22.70;60.90;;;;;;5001416;28;20181;-84
2023/10/01 10:56:10;;;;;;;14.73;7.33;;;22.70;62.90;;;;;;5000910;28;20186;-87
2023/10/01 10:58:46;;;;;;;13.03;6.97;;;22.70;47.60;;;;;;5004462;28;20704;-86
2023/10/01 11:01:18;;;;;;;11.80;6.70;;;22.80;40.20;;;;;;5002714;28;20209;-86
2023/10/01 11:03:57;;;;;;;14.90;8.00;;;22.90;60.90;;;;;;5002272;28;20193;-85
2023/10/01 11:06:29;;;;;;;13.80;6.90;;;22.90;67.70;;;;;;5002917;28;20185;-87
2023/10/01 11:08:57;;;;;;;14.93;6.87;;;23.00;43.00;;;;;;5000547;28;20205;-88
2023/10/01 11:11:24;;;;;;;13.17;7.00;;;23.10;39.60;;;;;;4999491;28;20194;-88
2023/10/01 11:14:00;;;;;;;12.77;7.27;;;23.10;68.90;;;;;;4999025;28;20189;-85
2023/10/01 11:16:40;;;;;;;15.17;7.07;;;23.20;88.30;;;;;;5001092;28;20170;-87
2023/10/01 11:19:14;;;;;;;12.90;6.83;;;23.40;92.00;;;;;;5000800;28;20260;-86
2023/10/01 11:21:55;;;;;;;14.17;7.03;;;23.60;92.00;;;;;;5000836;28;20298;-86
2023/10/01 11:24:25;;;;;;;13.40;7.00;;;23.50;84.70;;;;;;4999943;28;20198;-87
2023/10/01 11:27:17;;;;;;;14.70;7.13;;;23.60;81.80;;;;;;5000737;28;20273;-87
2023/10/01 11:29:44;;;;;;;14.13;6.90;;;23.70;73.20;;;;;;5002583;28;20198;-88
2023/10/01 11:32:16;;;;;;;13.73;7.23;;;23.70;58.30;;;;;;5004675;28;20182;-87
2023/10/01 11:34:43;;;;;;;14.73;7.70;;;23.80;66.70;;;;;;5004168;28;20174;-86
2023/10/01 11:37:18;;;;;;;18.13;7.63;;;23.70;58.80;;;;;;5003805;28;20194;-88
2023/10/01 11:39:52;;;;;;;16.13;8.67;;;23.90;64.20;;;;;;5001232;28;20217;-85
2023/10/01 11:42:38;;;;;;;15.27;8.40;;;24.00;66.30;;;;;;5003568;28;20635;-86
2023/10/01 11:45:30;;;;;;;14.43;7.80;;;24.10;64.40;;;;;;5007464;28;20174;-86
2023/10/01 11:48:05;;;;;;;17.43;8.63;;;24.10;63.80;;;;;;5007932;28;20170;-88
2023/10/01 11:50:50;;;;;;;14.60;8.33;;;24.20;50.70;;;;;;5004904;28;20170;-86
2023/10/01 11:53:17;;;;;;;12.90;7.67;;;24.30;56.50;;;;;;5008492;28;20170;-84
2023/10/01 11:55:43;;;;;;;14.20;8.27;;;24.40;69.60;;;;;;5007874;28;20190;-87
2023/10/01 11:58:16;;;;;;;15.43;8.30;;;24.40;37.10;;;;;;5010291;28;20210;-88
2023/10/01 12:00:59;;;;;;;16.37;8.53;;;24.40;45.00;;;;;;5000333;28;20233;-89
2023/10/01 12:03:27;;;;;;;16.50;8.87;;;24.40;50.60;;;;;;5010835;28;20623;-88
2023/10/01 12:05:56;;;;;;;14.93;8.17;;;24.40;49.40;;;;;;5000549;28;20178;-89
2023/10/01 12:08:47;;;;;;;15.67;9.23;;;24.50;47.20;;;;;;4999874;28;20293;-89
2023/10/01 12:13:42;;;;;;;18.23;8.97;;;24.70;43.90;;;;;;5004570;23;20242;-43
2023/10/01 12:16:07;;;;;;;15.17;8.47;;;24.80;69.30;;;;;;4997515;28;20282;-42
2023/10/01 12:18:46;;;;;;;15.17;8.37;;;24.80;56.30;;;;;;4997122;28;20163;-43
2023/10/01 12:21:24;;;;;;;15.90;9.30;;;24.90;32.90;;;;;;4996953;28;20214;-42
2023/10/01 12:23:50;;;;;;;13.87;8.60;;;24.90;46.10;;;;;;4995764;28;20197;-43
2023/10/01 12:29:11;;;;;;;15.10;9.07;;;25.00;1.00;;;;;;4996142;28;20182;-43
2023/10/01 12:31:27;;;;;;;16.50;9.10;;;25.10;17.10;;;;;;4996778;28;20191;-42
2023/10/01 12:33:58;;;;;;;15.00;8.80;;;25.20;35.40;;;;;;4996836;28;20182;-42
2023/10/01 12:36:57;;;;;;;14.53;8.57;;;25.20;47.20;;;;;;4996879;28;20166;-42
2023/10/01 12:39:17;;;;;;;15.83;9.23;;;25.30;46.20;;;;;;4995400;28;20226;-42
2023/10/01 12:47:00;;;;;;;15.87;9.20;;;25.50;9.30;;;;;;4997213;28;20167;-41
2023/10/01 12:49:26;;;;;;;14.97;9.17;;;25.50;19.20;;;;;;4996519;28;20202;-40
2023/10/01 12:51:56;;;;;;;14.97;8.97;;;25.50;16.90;;;;;;4996831;28;20209;-42
2023/10/01 12:54:25;;;;;;;14.13;8.77;;;25.60;39.20;;;;;;4995155;28;20188;-42
2023/10/01 12:59:40;;;;;;;15.40;9.53;;;25.70;25.20;;;;;;4996286;28;20214;-43
2023/10/01 13:02:28;;;;;;;14.47;9.03;;;25.70;13.00;;;;;;4996337;28;20684;-42
2023/10/01 13:05:16;;;;;;;16.20;9.93;;;25.70;38.40;;;;;;4996465;28;20167;-43
2023/10/01 13:07:50;;;;;;;16.70;10.23;;;25.80;34.30;;;;;;4996900;28;20533;-48
2023/10/01 13:10:17;;;;;;;15.17;9.90;;;25.80;20.20;;;;;;5003728;23;20245;-41
2023/10/01 13:12:59;;;;;;;17.40;9.70;;;25.80;7.80;;;;;;4996352;28;20186;-42
2023/10/01 13:15:33;;;;;;;16.43;10.00;;;25.90;30.90;;;;;;4996377;28;20162;-41
2023/10/01 13:18:18;;;;;;;15.27;9.33;;;25.90;31.30;;;;;;4996343;28;20204;-39
2023/10/01 13:23:16;;;;;;;17.33;9.97;;;26.10;43.80;;;;;;4996287;28;20158;-43
2023/10/01 13:26:05;;;;;;;15.27;9.40;;;26.00;28.60;;;;;;4995841;28;20175;-43
2023/10/01 13:28:43;;;;;;;14.18;9.30;;;26.10;43.20;;;;;;4996125;28;20166;-43
2023/10/01 13:31:12;;;;;;;15.38;9.70;;;26.10;40.50;;;;;;4995993;28;20308;-43
2023/10/01 13:36:35;;;;;;;15.30;8.90;;;26.20;1.00;;;;;;4996053;28;20585;-41
2023/10/01 14:09:16;;;;;;;17.45;10.00;;;26.30;9.40;;;;;;4995442;28;20313;-41
2023/10/01 14:14:36;;;;;;;15.18;9.35;;;26.30;1.60;;;;;;4541148;23;20242;-42
2023/10/01 14:17:14;;;;;;;16.42;10.30;;;26.30;26.70;;;;;;4994022;28;20253;-41
2023/10/01 14:19:51;;;;;;;15.10;9.65;;;26.40;19.70;;;;;;4994668;28;20225;-42
2023/10/01 14:22:21;;;;;;;14.57;9.43;;;26.40;1.00;;;;;;4995049;28;20233;-42
2023/10/01 14:24:47;;;;;;;18.45;10.00;;;26.30;1.00;;;;;;4994652;28;20186;-40
2023/10/01 14:27:26;;;;;;;15.98;9.63;;;26.30;1.00;;;;;;4995265;28;20178;-42
2023/10/01 14:30:23;;;;;;;15.77;9.45;;;26.30;1.80;;;;;;4994850;28;20233;-42
2023/10/01 14:32:51;;;;;;;14.70;9.52;;;26.30;1.00;;;;;;4994614;28;20182;-42
2023/10/01 14:35:18;;;;;;;17.95;10.63;;;26.30;2.40;;;;;;4994861;28;20209;-44
2023/10/01 14:38:21;;;;;;;16.95;10.52;;;26.30;1.00;;;;;;4993754;28;20193;-42
2023/10/01 14:40:37;;;;;;;16.05;10.18;;;26.20;1.00;;;;;;4992431;28;20218;-42